createdAt,value
2017-08-22T00:00:02.792Z,0
2017-08-22T00:01:14.758Z,0
2017-08-22T00:02:27.301Z,0
2017-08-22T00:03:39.272Z,0
2017-08-22T00:04:51.938Z,0
2017-08-22T00:06:04.207Z,0
2017-08-22T00:07:16.512Z,0
2017-08-22T00:08:28.786Z,0
2017-08-22T00:09:41.072Z,0
2017-08-22T00:10:53.616Z,0
2017-08-22T00:12:05.867Z,0
2017-08-22T00:13:17.880Z,0
2017-08-22T00:14:30.259Z,0
2017-08-22T00:15:42.565Z,0
2017-08-22T00:16:54.770Z,0
2017-08-22T00:18:06.729Z,0
2017-08-22T00:19:19.343Z,0
2017-08-22T00:20:31.606Z,0
2017-08-22T00:21:44.188Z,0
2017-08-22T00:22:56.824Z,0
2017-08-22T00:24:09.643Z,0
2017-08-22T00:25:22.220Z,0
2017-08-22T00:26:34.759Z,0
2017-08-22T00:27:46.687Z,0
2017-08-22T00:28:59.287Z,0
2017-08-22T00:30:11.552Z,0
2017-08-22T00:31:24.167Z,0
2017-08-22T00:32:36.114Z,0
2017-08-22T00:33:48.068Z,0
2017-08-22T00:35:00.605Z,0
2017-08-22T00:36:13.176Z,0
2017-08-22T00:37:25.732Z,0
2017-08-22T00:38:37.994Z,0
2017-08-22T00:39:50.286Z,0
2017-08-22T00:41:02.626Z,0
2017-08-22T00:42:14.862Z,0
2017-08-22T00:43:27.174Z,0
2017-08-22T00:44:39.421Z,0
2017-08-22T00:45:51.458Z,0
2017-08-22T00:47:03.121Z,0
2017-08-22T00:48:15.439Z,0
2017-08-22T00:49:27.400Z,0
2017-08-22T00:50:39.060Z,0
2017-08-22T00:51:51.705Z,0
2017-08-22T00:53:03.702Z,0
2017-08-22T00:54:15.994Z,0
2017-08-22T00:55:28.597Z,0
2017-08-22T00:56:40.584Z,0
2017-08-22T00:57:52.920Z,0
2017-08-22T00:59:05.173Z,0
2017-08-22T01:00:17.531Z,0
2017-08-22T01:01:30.116Z,0
2017-08-22T01:02:42.383Z,0
2017-08-22T01:03:55.000Z,0
2017-08-22T01:05:07.533Z,0
2017-08-22T01:06:19.801Z,0
2017-08-22T01:07:32.398Z,0
2017-08-22T01:08:45.007Z,0
2017-08-22T01:09:57.253Z,0
2017-08-22T01:11:09.498Z,0
2017-08-22T01:12:21.852Z,0
2017-08-22T01:13:34.464Z,0
2017-08-22T01:14:46.759Z,0
2017-08-22T01:15:59.380Z,0
2017-08-22T01:17:11.336Z,0
2017-08-22T01:18:23.636Z,0
2017-08-22T01:19:35.869Z,0
2017-08-22T01:20:48.514Z,0
2017-08-22T01:22:00.797Z,0
2017-08-22T01:23:12.805Z,0
2017-08-22T01:24:24.775Z,0
2017-08-22T01:25:37.013Z,0
2017-08-22T01:26:49.255Z,0
2017-08-22T01:28:01.823Z,0
2017-08-22T01:29:14.381Z,0
2017-08-22T01:30:26.340Z,0
2017-08-22T01:31:38.691Z,0
2017-08-22T01:32:50.970Z,0
2017-08-22T01:34:03.491Z,0
2017-08-22T01:35:15.744Z,0
2017-08-22T01:36:28.375Z,0
2017-08-22T01:37:40.928Z,0
2017-08-22T01:38:53.607Z,0
2017-08-22T01:40:05.870Z,0
2017-08-22T01:41:18.498Z,0
2017-08-22T01:42:30.776Z,0
2017-08-22T01:43:42.456Z,0
2017-08-22T01:44:54.702Z,0
2017-08-22T01:46:07.283Z,0
2017-08-22T01:47:19.569Z,0
2017-08-22T01:48:31.616Z,0
2017-08-22T01:49:43.908Z,0
2017-08-22T01:50:56.548Z,0
2017-08-22T01:52:08.826Z,0
2017-08-22T01:53:21.394Z,0
2017-08-22T01:54:34.003Z,0
2017-08-22T01:55:46.630Z,0
2017-08-22T01:56:59.208Z,0
2017-08-22T01:58:10.860Z,0
2017-08-22T01:59:23.487Z,0
2017-08-22T02:00:36.094Z,0
2017-08-22T02:01:48.676Z,0
2017-08-22T02:03:01.266Z,0
2017-08-22T02:04:13.543Z,0
2017-08-22T02:05:26.157Z,0
2017-08-22T02:06:38.458Z,0
2017-08-22T02:07:51.081Z,0
2017-08-22T02:09:03.425Z,0
2017-08-22T02:10:15.113Z,0
2017-08-22T02:11:27.689Z,0
2017-08-22T02:12:39.357Z,0
2017-08-22T02:13:51.654Z,0
2017-08-22T02:15:04.269Z,0
2017-08-22T02:16:15.914Z,0
2017-08-22T02:17:28.489Z,0
2017-08-22T02:18:41.079Z,0
2017-08-22T02:19:53.700Z,0
2017-08-22T02:21:06.257Z,0
2017-08-22T02:22:18.868Z,0
2017-08-22T02:23:30.868Z,0
2017-08-22T02:24:43.183Z,0
2017-08-22T02:25:55.785Z,0
2017-08-22T02:27:08.033Z,0
2017-08-22T02:28:19.687Z,0
2017-08-22T02:29:32.284Z,0
2017-08-22T02:30:44.597Z,0
2017-08-22T02:31:57.188Z,0
2017-08-22T02:33:09.548Z,0
2017-08-22T02:34:21.780Z,0
2017-08-22T02:35:34.372Z,0
2017-08-22T02:36:46.964Z,0
2017-08-22T02:37:59.511Z,0
2017-08-22T02:39:12.106Z,0
2017-08-22T02:40:24.408Z,0
2017-08-22T02:41:36.921Z,0
2017-08-22T02:42:49.216Z,0
2017-08-22T02:44:01.599Z,0
2017-08-22T02:45:14.176Z,0
2017-08-22T02:46:26.779Z,0
2017-08-22T02:47:39.028Z,0
2017-08-22T02:48:51.663Z,0
2017-08-22T02:50:03.990Z,0
2017-08-22T02:51:15.661Z,0
2017-08-22T02:52:28.258Z,0
2017-08-22T02:53:40.257Z,0
2017-08-22T02:54:52.574Z,0
2017-08-22T02:56:05.495Z,0
2017-08-22T02:57:17.765Z,0
2017-08-22T02:58:29.716Z,0
2017-08-22T02:59:42.343Z,0
2017-08-22T03:00:54.982Z,0
2017-08-22T03:02:06.987Z,0
2017-08-22T03:03:19.286Z,0
2017-08-22T03:04:31.898Z,0
2017-08-22T03:05:43.901Z,0
2017-08-22T03:06:56.691Z,0
2017-08-22T03:08:08.979Z,0
2017-08-22T03:09:21.547Z,0
2017-08-22T03:10:34.091Z,0
2017-08-22T03:11:46.340Z,0
2017-08-22T03:12:58.625Z,0
2017-08-22T03:14:11.190Z,0
2017-08-22T03:15:23.730Z,0
2017-08-22T03:16:36.330Z,0
2017-08-22T03:17:48.300Z,0
2017-08-22T03:19:00.261Z,0
2017-08-22T03:20:12.883Z,0
2017-08-22T03:21:24.852Z,0
2017-08-22T03:22:37.098Z,0
2017-08-22T03:23:49.336Z,0
2017-08-22T03:25:01.638Z,4
2017-08-22T03:26:13.596Z,4
2017-08-22T03:27:26.196Z,4
2017-08-22T03:28:38.757Z,0
2017-08-22T03:29:51.353Z,4
2017-08-22T03:31:03.949Z,4
2017-08-22T03:32:16.298Z,4
2017-08-22T03:33:28.536Z,8
2017-08-22T03:34:40.506Z,8
2017-08-22T03:35:53.081Z,12
2017-08-22T03:37:05.688Z,12
2017-08-22T03:38:18.277Z,12
2017-08-22T03:39:30.573Z,20
2017-08-22T03:40:42.855Z,24
2017-08-22T03:41:55.434Z,24
2017-08-22T03:43:07.773Z,32
2017-08-22T03:44:20.401Z,36
2017-08-22T03:45:32.690Z,44
2017-08-22T03:46:45.310Z,48
2017-08-22T03:47:57.851Z,56
2017-08-22T03:49:09.879Z,60
2017-08-22T03:50:22.125Z,68
2017-08-22T03:51:34.750Z,80
2017-08-22T03:52:46.112Z,92
2017-08-22T03:53:58.420Z,112
2017-08-22T03:55:10.431Z,124
2017-08-22T03:56:22.387Z,140
2017-08-22T03:57:34.705Z,156
2017-08-22T03:58:46.657Z,176
2017-08-22T03:59:59.269Z,200
2017-08-22T04:01:11.594Z,220
2017-08-22T04:02:23.636Z,240
2017-08-22T04:03:35.906Z,268
2017-08-22T04:04:48.512Z,304
2017-08-22T04:06:01.120Z,340
2017-08-22T04:07:13.467Z,376
2017-08-22T04:08:25.760Z,412
2017-08-22T04:09:38.035Z,448
2017-08-22T04:10:50.685Z,492
2017-08-22T04:12:03.320Z,528
2017-08-22T04:13:15.969Z,568
2017-08-22T04:14:28.210Z,608
2017-08-22T04:15:40.481Z,644
2017-08-22T04:16:53.063Z,684
2017-08-22T04:18:05.672Z,720
2017-08-22T04:19:18.257Z,760
2017-08-22T04:20:30.869Z,800
2017-08-22T04:21:43.495Z,840
2017-08-22T04:22:56.316Z,884
2017-08-22T04:24:08.937Z,924
2017-08-22T04:25:20.957Z,972
2017-08-22T04:26:33.574Z,1020
2017-08-22T04:27:46.155Z,1068
2017-08-22T04:28:58.808Z,1116
2017-08-22T04:30:11.454Z,1168
2017-08-22T04:31:23.724Z,1224
2017-08-22T04:32:36.331Z,1276
2017-08-22T04:33:49.191Z,1340
2017-08-22T04:35:01.463Z,1404
2017-08-22T04:36:13.437Z,1460
2017-08-22T04:37:25.666Z,1524
2017-08-22T04:38:38.249Z,1584
2017-08-22T04:39:50.820Z,1644
2017-08-22T04:41:03.138Z,1708
2017-08-22T04:42:15.417Z,1772
2017-08-22T04:43:27.987Z,1844
2017-08-22T04:44:40.602Z,1916
2017-08-22T04:45:53.145Z,1992
2017-08-22T04:47:05.144Z,2068
2017-08-22T04:48:17.750Z,2148
2017-08-22T04:49:30.351Z,2232
2017-08-22T04:50:42.954Z,2320
2017-08-22T04:51:55.526Z,2416
2017-08-22T04:53:07.832Z,2504
2017-08-22T04:54:20.127Z,2600
2017-08-22T04:55:32.732Z,2696
2017-08-22T04:56:45.355Z,2796
2017-08-22T04:57:57.604Z,2900
2017-08-22T04:59:09.874Z,3004
2017-08-22T05:00:22.119Z,3112
2017-08-22T05:01:34.352Z,3220
2017-08-22T05:02:46.647Z,3332
2017-08-22T05:03:59.237Z,3452
2017-08-22T05:05:11.827Z,3572
2017-08-22T05:06:23.439Z,3700
2017-08-22T05:07:36.029Z,3820
2017-08-22T05:08:48.615Z,3940
2017-08-22T05:10:01.184Z,4068
2017-08-22T05:11:13.741Z,4192
2017-08-22T05:12:26.362Z,4320
2017-08-22T05:13:38.609Z,4448
2017-08-22T05:14:51.142Z,4564
2017-08-22T05:16:03.703Z,4684
2017-08-22T05:17:16.268Z,4796
2017-08-22T05:18:28.560Z,4908
2017-08-22T05:19:41.181Z,5020
2017-08-22T05:20:53.801Z,5132
2017-08-22T05:22:06.378Z,5240
2017-08-22T05:23:18.961Z,5344
2017-08-22T05:24:31.485Z,5460
2017-08-22T05:25:43.771Z,5568
2017-08-22T05:26:56.377Z,5692
2017-08-22T05:28:08.423Z,5812
2017-08-22T05:29:21.016Z,5928
2017-08-22T05:30:33.611Z,6052
2017-08-22T05:31:46.188Z,6168
2017-08-22T05:32:58.727Z,6288
2017-08-22T05:34:11.013Z,6420
2017-08-22T05:35:23.020Z,6536
2017-08-22T05:36:35.241Z,6660
2017-08-22T05:37:46.891Z,6792
2017-08-22T05:38:59.695Z,6916
2017-08-22T05:40:12.036Z,7048
2017-08-22T05:41:24.572Z,7164
2017-08-22T05:42:37.117Z,7288
2017-08-22T05:43:49.361Z,7404
2017-08-22T05:45:01.994Z,7524
2017-08-22T05:46:14.228Z,7640
2017-08-22T05:47:26.480Z,7748
2017-08-22T05:48:39.119Z,7848
2017-08-22T05:49:51.726Z,7960
2017-08-22T05:51:04.416Z,8060
2017-08-22T05:52:16.608Z,8256
2017-08-22T05:53:28.836Z,8256
2017-08-22T05:54:41.126Z,8320
2017-08-22T05:55:53.474Z,8412
2017-08-22T05:57:05.739Z,8484
2017-08-22T05:58:17.965Z,8564
2017-08-22T05:59:30.211Z,8656
2017-08-22T06:00:42.763Z,8712
2017-08-22T06:01:55.082Z,9020
2017-08-22T06:03:07.685Z,9204
2017-08-22T06:04:20.274Z,9476
2017-08-22T06:05:32.902Z,9520
2017-08-22T06:06:44.886Z,9888
2017-08-22T06:07:57.511Z,9756
2017-08-22T06:09:10.107Z,9720
2017-08-22T06:10:22.772Z,9796
2017-08-22T06:11:35.361Z,9748
2017-08-22T06:12:47.375Z,9628
2017-08-22T06:13:59.977Z,9792
2017-08-22T06:15:12.610Z,9672
2017-08-22T06:16:24.929Z,9684
2017-08-22T06:17:37.513Z,9884
2017-08-22T06:18:49.513Z,9780
2017-08-22T06:20:02.191Z,9804
2017-08-22T06:21:13.262Z,10136
2017-08-22T06:22:25.523Z,10332
2017-08-22T06:23:38.061Z,10168
2017-08-22T06:24:50.671Z,10556
2017-08-22T06:26:03.226Z,13344
2017-08-22T06:27:15.787Z,13612
2017-08-22T06:28:28.083Z,13704
2017-08-22T06:29:40.677Z,13888
2017-08-22T06:30:52.967Z,13980
2017-08-22T06:32:05.174Z,14040
2017-08-22T06:33:17.783Z,14208
2017-08-22T06:34:30.432Z,14368
2017-08-22T06:35:42.107Z,14496
2017-08-22T06:36:54.722Z,14628
2017-08-22T06:38:06.994Z,14612
2017-08-22T06:39:18.661Z,14656
2017-08-22T06:40:30.939Z,14832
2017-08-22T06:41:43.517Z,14924
2017-08-22T06:42:56.124Z,14436
2017-08-22T06:44:08.404Z,15136
2017-08-22T06:45:21.031Z,15056
2017-08-22T06:46:33.601Z,14984
2017-08-22T06:47:45.856Z,14940
2017-08-22T06:48:58.401Z,14972
2017-08-22T06:50:10.383Z,15164
2017-08-22T06:51:22.930Z,15408
2017-08-22T06:52:35.565Z,15792
2017-08-22T06:53:48.140Z,16352
2017-08-22T06:55:00.789Z,16728
2017-08-22T06:56:12.781Z,16996
2017-08-22T06:57:25.426Z,16588
2017-08-22T06:58:37.671Z,15868
2017-08-22T06:59:49.686Z,15896
2017-08-22T07:01:02.309Z,15768
2017-08-22T07:02:14.859Z,15680
2017-08-22T07:03:27.170Z,15672
2017-08-22T07:04:39.418Z,15704
2017-08-22T07:05:51.720Z,15864
2017-08-22T07:07:03.693Z,16204
2017-08-22T07:08:16.256Z,16680
2017-08-22T07:09:28.254Z,17080
2017-08-22T07:10:40.848Z,17712
2017-08-22T07:11:52.875Z,18464
2017-08-22T07:13:05.218Z,19232
2017-08-22T07:14:17.778Z,19488
2017-08-22T07:15:30.392Z,19200
2017-08-22T07:16:42.051Z,18336
2017-08-22T07:17:54.370Z,19488
2017-08-22T07:19:06.396Z,22976
2017-08-22T07:20:18.988Z,21216
2017-08-22T07:21:31.286Z,22144
2017-08-22T07:22:43.955Z,20896
2017-08-22T07:23:56.476Z,20480
2017-08-22T07:25:08.422Z,20640
2017-08-22T07:26:20.097Z,23136
2017-08-22T07:27:32.678Z,17920
2017-08-22T07:28:44.908Z,19456
2017-08-22T07:29:56.878Z,21536
2017-08-22T07:31:09.133Z,23616
2017-08-22T07:32:21.371Z,20480
2017-08-22T07:33:33.315Z,19296
2017-08-22T07:34:45.885Z,21376
2017-08-22T07:35:58.460Z,21888
2017-08-22T07:37:11.027Z,27104
2017-08-22T07:38:22.649Z,25024
2017-08-22T07:39:35.261Z,26240
2017-08-22T07:40:47.815Z,43936
2017-08-22T07:42:00.371Z,30112
2017-08-22T07:43:12.355Z,31808
2017-08-22T07:44:24.336Z,26880
2017-08-22T07:45:36.975Z,43552
2017-08-22T07:46:49.345Z,31808
2017-08-22T07:48:01.963Z,25856
2017-08-22T07:49:14.250Z,22592
2017-08-22T07:50:26.264Z,21152
2017-08-22T07:51:38.230Z,22400
2017-08-22T07:52:50.623Z,22656
2017-08-22T07:54:03.256Z,22688
2017-08-22T07:55:15.562Z,19072
2017-08-22T07:56:28.168Z,16712
2017-08-22T07:57:40.784Z,15564
2017-08-22T07:58:53.323Z,16676
2017-08-22T08:00:06.107Z,18304
2017-08-22T08:01:18.693Z,19776
2017-08-22T08:02:30.937Z,19264
2017-08-22T08:03:42.865Z,17280
2017-08-22T08:04:55.209Z,14516
2017-08-22T08:06:07.491Z,13324
2017-08-22T08:07:20.042Z,13108
2017-08-22T08:08:32.392Z,13744
2017-08-22T08:09:44.733Z,15184
2017-08-22T08:10:57.041Z,16464
2017-08-22T08:12:09.057Z,16844
2017-08-22T08:13:21.597Z,16328
2017-08-22T08:14:33.516Z,15764
2017-08-22T08:15:45.791Z,16736
2017-08-22T08:16:58.412Z,17824
2017-08-22T08:18:10.984Z,18016
2017-08-22T08:19:23.263Z,17312
2017-08-22T08:20:35.870Z,17040
2017-08-22T08:21:48.167Z,18048
2017-08-22T08:23:00.437Z,18336
2017-08-22T08:24:13.005Z,18080
2017-08-22T08:25:25.037Z,18624
2017-08-22T08:26:37.348Z,18528
2017-08-22T08:27:49.950Z,18688
2017-08-22T08:29:02.212Z,19360
2017-08-22T08:30:14.461Z,19200
2017-08-22T08:31:27.056Z,19584
2017-08-22T08:32:39.585Z,20384
2017-08-22T08:33:51.307Z,20832
2017-08-22T08:35:03.277Z,21216
2017-08-22T08:36:15.249Z,20480
2017-08-22T08:37:27.834Z,20160
2017-08-22T08:38:39.509Z,20768
2017-08-22T08:39:52.156Z,21792
2017-08-22T08:41:04.407Z,21472
2017-08-22T08:42:16.759Z,20800
2017-08-22T08:43:29.314Z,20864
2017-08-22T08:44:41.861Z,20960
2017-08-22T08:45:54.503Z,21280
2017-08-22T08:47:07.060Z,22048
2017-08-22T08:48:19.349Z,23680
2017-08-22T08:49:31.599Z,26144
2017-08-22T08:50:44.178Z,27200
2017-08-22T08:51:56.763Z,25632
2017-08-22T08:53:09.070Z,24384
2017-08-22T08:54:20.715Z,23808
2017-08-22T08:55:33.268Z,23936
2017-08-22T08:56:45.875Z,24384
2017-08-22T08:57:57.596Z,24864
2017-08-22T08:59:09.905Z,25536
2017-08-22T09:00:22.493Z,26016
2017-08-22T09:01:34.797Z,24928
2017-08-22T09:02:47.368Z,23328
2017-08-22T09:03:59.974Z,21984
2017-08-22T09:05:12.601Z,20832
2017-08-22T09:06:24.891Z,20224
2017-08-22T09:07:37.201Z,20128
2017-08-22T09:08:49.830Z,20640
2017-08-22T09:10:02.490Z,21504
2017-08-22T09:11:14.793Z,22144
2017-08-22T09:12:27.095Z,22720
2017-08-22T09:13:39.702Z,24096
2017-08-22T09:14:51.702Z,25856
2017-08-22T09:16:03.993Z,27264
2017-08-22T09:17:16.567Z,28320
2017-08-22T09:18:28.585Z,28352
2017-08-22T09:19:40.885Z,28896
2017-08-22T09:20:52.840Z,29312
2017-08-22T09:22:05.428Z,28736
2017-08-22T09:23:18.025Z,28800
2017-08-22T09:24:30.686Z,29088
2017-08-22T09:25:43.249Z,29696
2017-08-22T09:26:55.180Z,30944
2017-08-22T09:28:07.128Z,31392
2017-08-22T09:29:19.379Z,31776
2017-08-22T09:30:31.969Z,30752
2017-08-22T09:31:44.276Z,30656
2017-08-22T09:32:56.898Z,33472
2017-08-22T09:34:09.215Z,34176
2017-08-22T09:35:21.480Z,33984
2017-08-22T09:36:34.077Z,34016
2017-08-22T09:37:46.672Z,34400
2017-08-22T09:38:59.308Z,33632
2017-08-22T09:40:11.584Z,32352
2017-08-22T09:41:24.164Z,32768
2017-08-22T09:42:36.799Z,34240
2017-08-22T09:43:49.394Z,35104
2017-08-22T09:45:01.700Z,35296
2017-08-22T09:46:14.251Z,34848
2017-08-22T09:47:26.855Z,31616
2017-08-22T09:48:39.463Z,31808
2017-08-22T09:49:52.079Z,31168
2017-08-22T09:51:04.645Z,34720
2017-08-22T09:52:17.256Z,35168
2017-08-22T09:53:29.833Z,29952
2017-08-22T09:54:42.416Z,29120
2017-08-22T09:55:55.101Z,30208
2017-08-22T09:57:07.421Z,30400
2017-08-22T09:58:19.722Z,30816
2017-08-22T09:59:32.041Z,31072
2017-08-22T10:00:44.583Z,30080
2017-08-22T10:01:56.503Z,30912
2017-08-22T10:03:09.135Z,33472
2017-08-22T10:04:21.710Z,35296
2017-08-22T10:05:34.040Z,36960
2017-08-22T10:06:46.628Z,37376
2017-08-22T10:07:58.883Z,36160
2017-08-22T10:09:11.458Z,35424
2017-08-22T10:10:23.766Z,34720
2017-08-22T10:11:35.159Z,34048
2017-08-22T10:12:47.452Z,33664
2017-08-22T10:14:00.017Z,31136
2017-08-22T10:15:12.283Z,29760
2017-08-22T10:16:24.650Z,29952
2017-08-22T10:17:36.667Z,28768
2017-08-22T10:18:48.928Z,31168
2017-08-22T10:20:01.200Z,34432
2017-08-22T10:21:13.988Z,36864
2017-08-22T10:22:26.271Z,35936
2017-08-22T10:23:38.208Z,31008
2017-08-22T10:24:50.799Z,35232
2017-08-22T10:26:02.766Z,33280
2017-08-22T10:27:15.426Z,41184
2017-08-22T10:28:28.050Z,37376
2017-08-22T10:29:40.355Z,37216
2017-08-22T10:30:52.935Z,45760
2017-08-22T10:32:05.593Z,57472
2017-08-22T10:33:17.921Z,43072
2017-08-22T10:34:30.236Z,61664
2017-08-22T10:35:42.838Z,32096
2017-08-22T10:36:55.067Z,41056
2017-08-22T10:38:07.748Z,41824
2017-08-22T10:39:20.375Z,53536
2017-08-22T10:40:32.996Z,45536
2017-08-22T10:41:45.365Z,39744
2017-08-22T10:42:57.343Z,64320
2017-08-22T10:44:09.703Z,20064
2017-08-22T10:45:22.302Z,24096
2017-08-22T10:46:34.852Z,28416
2017-08-22T10:47:47.166Z,35168
2017-08-22T10:48:59.184Z,14904
2017-08-22T10:50:11.554Z,15600
2017-08-22T10:51:23.510Z,16788
2017-08-22T10:52:36.144Z,19008
2017-08-22T10:53:48.704Z,17140
2017-08-22T10:55:00.712Z,19072
2017-08-22T10:56:13.008Z,80544
2017-08-22T10:57:25.614Z,83840
2017-08-22T10:58:37.928Z,36096
2017-08-22T10:59:50.545Z,90112
2017-08-22T11:01:03.149Z,64768
2017-08-22T11:02:14.784Z,41824
2017-08-22T11:03:27.036Z,40128
2017-08-22T11:04:39.326Z,38432
2017-08-22T11:05:51.573Z,29472
2017-08-22T11:07:04.094Z,25408
2017-08-22T11:08:16.121Z,22144
2017-08-22T11:09:28.384Z,20544
2017-08-22T11:10:40.881Z,17056
2017-08-22T11:11:53.479Z,16472
2017-08-22T11:13:06.121Z,15788
2017-08-22T11:14:18.091Z,15344
2017-08-22T11:15:29.730Z,16292
2017-08-22T11:16:42.294Z,17568
2017-08-22T11:17:54.590Z,17216
2017-08-22T11:19:06.854Z,16108
2017-08-22T11:20:19.424Z,16104
2017-08-22T11:21:31.720Z,17888
2017-08-22T11:22:44.235Z,21120
2017-08-22T11:23:56.849Z,24096
2017-08-22T11:25:09.454Z,27712
2017-08-22T11:26:22.010Z,29216
2017-08-22T11:27:34.280Z,26208
2017-08-22T11:28:46.626Z,22976
2017-08-22T11:29:59.261Z,21536
2017-08-22T11:31:11.863Z,21504
2017-08-22T11:32:24.454Z,22880
2017-08-22T11:33:36.795Z,24800
2017-08-22T11:34:49.484Z,25792
2017-08-22T11:36:02.095Z,24256
2017-08-22T11:37:14.435Z,22016
2017-08-22T11:38:26.736Z,20416
2017-08-22T11:39:38.755Z,18400
2017-08-22T11:40:51.058Z,15468
2017-08-22T11:42:03.704Z,12552
2017-08-22T11:43:16.316Z,10512
2017-08-22T11:44:28.884Z,8440
2017-08-22T11:45:41.178Z,6412
2017-08-22T11:46:53.150Z,5784
2017-08-22T11:48:05.698Z,6000
2017-08-22T11:49:18.268Z,6248
2017-08-22T11:50:30.903Z,6396
2017-08-22T11:51:43.258Z,6440
2017-08-22T11:52:55.264Z,6540
2017-08-22T11:54:07.553Z,6740
2017-08-22T11:55:19.791Z,7180
2017-08-22T11:56:32.318Z,7976
2017-08-22T11:57:44.296Z,9188
2017-08-22T11:58:56.267Z,10400
2017-08-22T12:00:08.528Z,11024
2017-08-22T12:01:20.865Z,10776
2017-08-22T12:02:32.859Z,10168
2017-08-22T12:03:45.448Z,10000
2017-08-22T12:04:57.737Z,10092
2017-08-22T12:06:09.690Z,10348
2017-08-22T12:07:21.678Z,10576
2017-08-22T12:08:33.898Z,10616
2017-08-22T12:09:46.141Z,10608
2017-08-22T12:10:58.390Z,10504
2017-08-22T12:12:10.007Z,10336
2017-08-22T12:13:22.359Z,10480
2017-08-22T12:14:34.650Z,11104
2017-08-22T12:15:47.157Z,11988
2017-08-22T12:16:58.508Z,13004
2017-08-22T12:18:10.436Z,14084
2017-08-22T12:19:22.664Z,15084
2017-08-22T12:20:34.678Z,15208
2017-08-22T12:21:47.229Z,15032
2017-08-22T12:22:59.855Z,15472
2017-08-22T12:24:12.141Z,16296
2017-08-22T12:25:24.094Z,16912
2017-08-22T12:26:36.661Z,17760
2017-08-22T12:27:49.274Z,19200
2017-08-22T12:29:01.890Z,20192
2017-08-22T12:30:14.541Z,20096
2017-08-22T12:31:26.513Z,19040
2017-08-22T12:32:38.785Z,17824
2017-08-22T12:33:51.032Z,17088
2017-08-22T12:35:03.304Z,17120
2017-08-22T12:36:15.389Z,18080
2017-08-22T12:37:27.127Z,19328
2017-08-22T12:38:39.136Z,20128
2017-08-22T12:39:51.440Z,21152
2017-08-22T12:41:03.721Z,22304
2017-08-22T12:42:16.281Z,23008
2017-08-22T12:43:28.906Z,23488
2017-08-22T12:44:41.165Z,23552
2017-08-22T12:45:53.722Z,25056
2017-08-22T12:47:06.011Z,23936
2017-08-22T12:48:18.301Z,22592
2017-08-22T12:49:30.584Z,22400
2017-08-22T12:50:43.174Z,21984
2017-08-22T12:51:55.817Z,22016
2017-08-22T12:53:08.091Z,20832
2017-08-22T12:54:20.748Z,19296
2017-08-22T12:55:32.726Z,17440
2017-08-22T12:56:44.754Z,16116
2017-08-22T12:57:57.081Z,16136
2017-08-22T12:59:09.097Z,17760
2017-08-22T13:00:21.385Z,20896
2017-08-22T13:01:33.690Z,22624
2017-08-22T13:02:46.311Z,23136
2017-08-22T13:03:58.333Z,22272
2017-08-22T13:05:10.966Z,21664
2017-08-22T13:06:23.537Z,21632
2017-08-22T13:07:36.211Z,21376
2017-08-22T13:08:48.559Z,20832
2017-08-22T13:10:00.892Z,20672
2017-08-22T13:11:12.828Z,20480
2017-08-22T13:12:25.416Z,19968
2017-08-22T13:13:37.672Z,19552
2017-08-22T13:14:50.023Z,19168
2017-08-22T13:16:01.688Z,18688
2017-08-22T13:17:13.649Z,18432
2017-08-22T13:18:25.874Z,18976
2017-08-22T13:19:38.489Z,20576
2017-08-22T13:20:51.125Z,22208
2017-08-22T13:22:03.429Z,22784
2017-08-22T13:23:15.084Z,22624
2017-08-22T13:24:27.078Z,21312
2017-08-22T13:25:39.424Z,20128
2017-08-22T13:26:51.749Z,18400
2017-08-22T13:28:04.416Z,17664
2017-08-22T13:29:16.780Z,16540
2017-08-22T13:30:29.336Z,15344
2017-08-22T13:31:41.963Z,14500
2017-08-22T13:32:54.266Z,14132
2017-08-22T13:34:06.236Z,13776
2017-08-22T13:35:17.916Z,13656
2017-08-22T13:36:30.528Z,14028
2017-08-22T13:37:42.830Z,14480
2017-08-22T13:38:55.456Z,15172
2017-08-22T13:40:07.766Z,15836
2017-08-22T13:41:19.772Z,16200
2017-08-22T13:42:32.367Z,16632
2017-08-22T13:43:45.080Z,15660
2017-08-22T13:44:57.362Z,13696
2017-08-22T13:46:09.050Z,11148
2017-08-22T13:47:21.642Z,8904
2017-08-22T13:48:33.916Z,7200
2017-08-22T13:49:46.595Z,6480
2017-08-22T13:50:59.218Z,6920
2017-08-22T13:52:11.829Z,8332
2017-08-22T13:53:23.751Z,10140
2017-08-22T13:54:36.370Z,12328
2017-08-22T13:55:48.933Z,13944
2017-08-22T13:57:01.246Z,15732
2017-08-22T13:58:13.754Z,17632
2017-08-22T13:59:25.996Z,18592
2017-08-22T14:00:37.922Z,19008
2017-08-22T14:01:50.538Z,18752
2017-08-22T14:03:03.108Z,18144
2017-08-22T14:04:15.428Z,17664
2017-08-22T14:05:27.664Z,17344
2017-08-22T14:06:39.374Z,16856
2017-08-22T14:07:51.665Z,15944
2017-08-22T14:09:04.243Z,14624
2017-08-22T14:10:16.470Z,13160
2017-08-22T14:11:29.033Z,11868
2017-08-22T14:12:41.646Z,10552
2017-08-22T14:13:53.881Z,9256
2017-08-22T14:15:06.490Z,7992
2017-08-22T14:16:18.746Z,7384
2017-08-22T14:17:30.773Z,7472
2017-08-22T14:18:43.076Z,7804
2017-08-22T14:19:55.653Z,8184
2017-08-22T14:21:08.249Z,8508
2017-08-22T14:22:20.874Z,8752
2017-08-22T14:23:33.536Z,8904
2017-08-22T14:24:45.809Z,9212
2017-08-22T14:25:57.774Z,9956
2017-08-22T14:27:10.026Z,10864
2017-08-22T14:28:22.667Z,11700
2017-08-22T14:29:34.916Z,12664
2017-08-22T14:30:47.267Z,13588
2017-08-22T14:31:59.911Z,13840
2017-08-22T14:33:12.554Z,13716
2017-08-22T14:34:24.819Z,13416
2017-08-22T14:35:37.464Z,13204
2017-08-22T14:36:49.490Z,12916
2017-08-22T14:38:01.782Z,12044
2017-08-22T14:39:14.090Z,11196
2017-08-22T14:40:26.426Z,10688
2017-08-22T14:41:38.719Z,10492
2017-08-22T14:42:50.681Z,10380
2017-08-22T14:44:03.293Z,10016
2017-08-22T14:45:15.567Z,9572
2017-08-22T14:46:28.177Z,9404
2017-08-22T14:47:40.772Z,9452
2017-08-22T14:48:52.767Z,9528
2017-08-22T14:50:05.291Z,9748
2017-08-22T14:51:17.295Z,10240
2017-08-22T14:52:29.576Z,11236
2017-08-22T14:53:41.875Z,11964
2017-08-22T14:54:54.111Z,12948
2017-08-22T14:56:06.716Z,13660
2017-08-22T14:57:19.042Z,13680
2017-08-22T14:58:31.643Z,13916
2017-08-22T14:59:44.272Z,14064
2017-08-22T15:00:56.559Z,14004
2017-08-22T15:02:08.544Z,13856
2017-08-22T15:03:20.851Z,13724
2017-08-22T15:04:32.835Z,13492
2017-08-22T15:05:45.439Z,13236
2017-08-22T15:06:58.050Z,13076
2017-08-22T15:08:10.311Z,12824
2017-08-22T15:09:22.911Z,12400
2017-08-22T15:10:35.475Z,12044
2017-08-22T15:11:47.785Z,12048
2017-08-22T15:13:00.380Z,11984
2017-08-22T15:14:13.027Z,11868
2017-08-22T15:15:25.346Z,12116
2017-08-22T15:16:37.298Z,12528
2017-08-22T15:17:49.916Z,12828
2017-08-22T15:19:02.146Z,13328
2017-08-22T15:20:14.453Z,13668
2017-08-22T15:21:26.443Z,13496
2017-08-22T15:22:38.469Z,13460
2017-08-22T15:23:51.070Z,13396
2017-08-22T15:25:03.688Z,13240
2017-08-22T15:26:16.238Z,12456
2017-08-22T15:27:28.229Z,11936
2017-08-22T15:28:40.791Z,11376
2017-08-22T15:29:53.047Z,10972
2017-08-22T15:31:05.614Z,10716
2017-08-22T15:32:17.894Z,10920
2017-08-22T15:33:30.207Z,10636
2017-08-22T15:34:42.509Z,10556
2017-08-22T15:35:54.515Z,10248
2017-08-22T15:37:06.850Z,9760
2017-08-22T15:38:19.149Z,9240
2017-08-22T15:39:31.760Z,8764
2017-08-22T15:40:44.352Z,8428
2017-08-22T15:41:56.632Z,7904
2017-08-22T15:43:09.209Z,7500
2017-08-22T15:44:21.817Z,7244
2017-08-22T15:45:34.407Z,7172
2017-08-22T15:46:46.663Z,7044
2017-08-22T15:47:59.047Z,6968
2017-08-22T15:49:11.344Z,6948
2017-08-22T15:50:23.563Z,6928
2017-08-22T15:51:36.145Z,6996
2017-08-22T15:52:48.813Z,7140
2017-08-22T15:54:01.434Z,7336
2017-08-22T15:55:13.751Z,7604
2017-08-22T15:56:26.315Z,8032
2017-08-22T15:57:38.607Z,8356
2017-08-22T15:58:51.275Z,8384
2017-08-22T16:00:03.509Z,8256
2017-08-22T16:01:15.798Z,8304
2017-08-22T16:02:28.415Z,8336
2017-08-22T16:03:41.047Z,8432
2017-08-22T16:04:53.617Z,8464
2017-08-22T16:06:06.200Z,8436
2017-08-22T16:07:18.770Z,8240
2017-08-22T16:08:30.833Z,8048
2017-08-22T16:09:43.456Z,7840